West Salem, Wisconsin
Current Conditions -  °F | °C
As of 11:53 PM on Tuesday 21 Oct 2014 (Local Time) from KLSE Reporting Station
Clear Clear  
Wind Chill: 39°   Ceiling: Unl
Heat Index: 42°   Visibility: 10mi
Dew Point: 35°   Wind: 5mph
Humidity: 76%   Direction: 100°E
Pressure: 30.26"   Gusts: NA
Location:  43.9°N, 91.08°W
Report Text: KLSE 220453Z AUTO 10004KT 10SM CLR 06/02 A3026 RMK AO2 SLP253 T00560017
Loading
Personal Weather Stations






























Interactive Weather Map
Tropical Storm Tracking
New forecast layout! Learn more

10-Day Weather Forecast

Advertisements
Track Severe Weather on mobile